KVAD/VAD METAR and TAF weather

Enter ICAO airport designator
Station Type Date Time Source
KVAD METAR 2021/09/24 04:56 UTC NOAA

KVAD 240456Z AUTO 00000KT 10SM CLR 16/13 A3001 RMK AO2 SLP164 T01640127 402580150 $


Station Type Date Time Source
KVAD Decoded METAR 2021/09/24 04:56 UTC NOAA

Moody Air Force Base, GA, United States (KVAD) 30-58N 083-12W 71M
Sep 24, 2021 - 12:56 AM EDT / 2021.09.24 0456 UTC
Wind: Calm:0
Visibility: 10 mile(s):0
Sky conditions: clear
Temperature: 61.5 F (16.4 C)
Dew Point: 54.9 F (12.7 C)
Relative Humidity: 78%
Pressure (altimeter): 30.01 in. Hg (1016 hPa)
ob: KVAD 240456Z AUTO 00000KT 10SM CLR 16/13 A3001 RMK AO2 SLP164 T01640127 402580150
cycle: 5

Station Type Date Time Source
KVAD TAF 2021/09/24 00:00 UTC NOAA

TAF KVAD 240000Z 2400/2506 36009KT 9999 SKC QNH2996INS TX27/2420Z TN12/2410Z

Example: see airport list